sensor_id;sensor_type;location;lat;lon;timestamp;P1;durP1;ratioP1;P2;durP2;ratioP2
8656;SDS011;4366;50.764;7.184;2023-05-16T00:04:37;2.80;;;2.10;;
8656;SDS011;4366;50.764;7.184;2023-05-16T00:09:39;3.03;;;2.00;;
8656;SDS011;4366;50.764;7.184;2023-05-16T00:14:40;2.47;;;1.93;;
8656;SDS011;4366;50.764;7.184;2023-05-16T00:19:43;1.77;;;1.67;;
8656;SDS011;4366;50.764;7.184;2023-05-16T00:24:44;2.20;;;2.00;;
8656;SDS011;4366;50.764;7.184;2023-05-16T00:29:46;2.10;;;1.80;;
8656;SDS011;4366;50.764;7.184;2023-05-16T00:34:48;2.17;;;1.50;;
8656;SDS011;4366;50.764;7.184;2023-05-16T00:39:50;1.50;;;1.43;;
8656;SDS011;4366;50.764;7.184;2023-05-16T00:44:52;1.90;;;1.80;;
8656;SDS011;4366;50.764;7.184;2023-05-16T00:49:54;2.33;;;2.03;;
8656;SDS011;4366;50.764;7.184;2023-05-16T00:54:56;3.70;;;2.63;;
8656;SDS011;4366;50.764;7.184;2023-05-16T00:59:58;2.57;;;2.37;;
8656;SDS011;4366;50.764;7.184;2023-05-16T01:05:00;3.80;;;3.40;;
8656;SDS011;4366;50.764;7.184;2023-05-16T01:10:02;2.90;;;2.60;;
8656;SDS011;4366;50.764;7.184;2023-05-16T01:15:07;3.10;;;2.80;;
8656;SDS011;4366;50.764;7.184;2023-05-16T01:20:23;3.83;;;3.50;;
8656;SDS011;4366;50.764;7.184;2023-05-16T01:30:57;3.67;;;3.10;;
8656;SDS011;4366;50.764;7.184;2023-05-16T01:36:23;3.63;;;2.83;;
8656;SDS011;4366;50.764;7.184;2023-05-16T01:46:42;4.60;;;3.43;;
8656;SDS011;4366;50.764;7.184;2023-05-16T01:51:51;4.63;;;3.30;;
8656;SDS011;4366;50.764;7.184;2023-05-16T01:57:06;4.87;;;4.03;;
8656;SDS011;4366;50.764;7.184;2023-05-16T02:02:09;3.47;;;2.67;;
8656;SDS011;4366;50.764;7.184;2023-05-16T02:07:13;2.90;;;2.30;;
8656;SDS011;4366;50.764;7.184;2023-05-16T02:12:15;2.27;;;1.80;;
8656;SDS011;4366;50.764;7.184;2023-05-16T02:17:17;2.43;;;2.23;;
8656;SDS011;4366;50.764;7.184;2023-05-16T02:22:18;2.10;;;1.90;;
8656;SDS011;4366;50.764;7.184;2023-05-16T02:27:20;2.13;;;2.00;;
8656;SDS011;4366;50.764;7.184;2023-05-16T02:32:21;2.63;;;2.43;;
8656;SDS011;4366;50.764;7.184;2023-05-16T02:37:25;3.53;;;3.23;;
8656;SDS011;4366;50.764;7.184;2023-05-16T02:42:27;2.60;;;2.40;;
8656;SDS011;4366;50.764;7.184;2023-05-16T02:47:29;2.87;;;2.33;;
8656;SDS011;4366;50.764;7.184;2023-05-16T02:52:31;2.63;;;2.43;;
8656;SDS011;4366;50.764;7.184;2023-05-16T02:57:32;2.40;;;2.20;;
8656;SDS011;4366;50.764;7.184;2023-05-16T03:02:34;2.77;;;2.57;;
8656;SDS011;4366;50.764;7.184;2023-05-16T03:07:36;2.43;;;2.23;;
8656;SDS011;4366;50.764;7.184;2023-05-16T03:12:38;2.50;;;2.30;;
8656;SDS011;4366;50.764;7.184;2023-05-16T03:17:42;2.47;;;2.10;;
8656;SDS011;4366;50.764;7.184;2023-05-16T03:22:44;1.80;;;1.70;;
8656;SDS011;4366;50.764;7.184;2023-05-16T03:27:45;2.30;;;2.10;;
8656;SDS011;4366;50.764;7.184;2023-05-16T03:32:47;3.87;;;2.30;;
8656;SDS011;4366;50.764;7.184;2023-05-16T03:37:49;2.23;;;2.03;;
8656;SDS011;4366;50.764;7.184;2023-05-16T03:42:52;1.80;;;1.70;;
8656;SDS011;4366;50.764;7.184;2023-05-16T03:47:53;2.30;;;2.10;;
8656;SDS011;4366;50.764;7.184;2023-05-16T03:52:57;2.97;;;2.50;;
8656;SDS011;4366;50.764;7.184;2023-05-16T03:57:59;2.23;;;2.00;;
8656;SDS011;4366;50.764;7.184;2023-05-16T04:03:00;3.00;;;2.13;;
8656;SDS011;4366;50.764;7.184;2023-05-16T04:08:02;2.73;;;2.53;;
8656;SDS011;4366;50.764;7.184;2023-05-16T04:13:04;2.10;;;1.90;;
8656;SDS011;4366;50.764;7.184;2023-05-16T04:18:07;2.53;;;1.90;;
8656;SDS011;4366;50.764;7.184;2023-05-16T04:23:09;2.43;;;2.00;;
8656;SDS011;4366;50.764;7.184;2023-05-16T04:28:12;2.10;;;1.90;;
8656;SDS011;4366;50.764;7.184;2023-05-16T04:33:13;2.77;;;1.87;;
8656;SDS011;4366;50.764;7.184;2023-05-16T04:38:15;2.00;;;1.90;;
8656;SDS011;4366;50.764;7.184;2023-05-16T04:43:17;3.47;;;2.10;;
8656;SDS011;4366;50.764;7.184;2023-05-16T04:48:20;2.30;;;2.13;;
8656;SDS011;4366;50.764;7.184;2023-05-16T04:53:21;3.70;;;2.97;;
8656;SDS011;4366;50.764;7.184;2023-05-16T04:58:24;2.90;;;2.10;;
8656;SDS011;4366;50.764;7.184;2023-05-16T05:03:26;3.67;;;2.40;;
8656;SDS011;4366;50.764;7.184;2023-05-16T05:08:28;2.10;;;2.00;;
8656;SDS011;4366;50.764;7.184;2023-05-16T05:13:29;3.90;;;2.30;;
8656;SDS011;4366;50.764;7.184;2023-05-16T05:18:31;7.07;;;3.00;;
8656;SDS011;4366;50.764;7.184;2023-05-16T05:23:33;2.70;;;2.50;;
8656;SDS011;4366;50.764;7.184;2023-05-16T05:28:35;3.40;;;2.30;;
8656;SDS011;4366;50.764;7.184;2023-05-16T05:33:38;2.53;;;1.93;;
8656;SDS011;4366;50.764;7.184;2023-05-16T05:38:39;4.00;;;2.00;;
8656;SDS011;4366;50.764;7.184;2023-05-16T05:43:44;3.73;;;2.17;;
8656;SDS011;4366;50.764;7.184;2023-05-16T05:53:52;2.60;;;2.40;;
8656;SDS011;4366;50.764;7.184;2023-05-16T05:58:55;2.43;;;2.07;;
8656;SDS011;4366;50.764;7.184;2023-05-16T06:03:57;2.73;;;2.23;;
8656;SDS011;4366;50.764;7.184;2023-05-16T06:09:01;2.60;;;2.33;;
8656;SDS011;4366;50.764;7.184;2023-05-16T06:14:03;2.20;;;2.10;;
8656;SDS011;4366;50.764;7.184;2023-05-16T06:19:05;2.70;;;2.03;;
8656;SDS011;4366;50.764;7.184;2023-05-16T06:24:07;3.27;;;1.93;;
8656;SDS011;4366;50.764;7.184;2023-05-16T06:29:10;1.87;;;1.77;;
8656;SDS011;4366;50.764;7.184;2023-05-16T06:34:12;2.20;;;2.00;;
8656;SDS011;4366;50.764;7.184;2023-05-16T06:39:13;7.40;;;2.20;;
8656;SDS011;4366;50.764;7.184;2023-05-16T06:44:15;1.90;;;1.80;;
8656;SDS011;4366;50.764;7.184;2023-05-16T06:49:17;1.90;;;1.80;;
8656;SDS011;4366;50.764;7.184;2023-05-16T06:54:21;4.20;;;2.30;;
8656;SDS011;4366;50.764;7.184;2023-05-16T06:59:23;3.00;;;2.00;;
8656;SDS011;4366;50.764;7.184;2023-05-16T07:04:31;2.40;;;1.53;;
8656;SDS011;4366;50.764;7.184;2023-05-16T07:09:34;1.60;;;1.50;;
8656;SDS011;4366;50.764;7.184;2023-05-16T07:14:36;2.67;;;1.83;;
8656;SDS011;4366;50.764;7.184;2023-05-16T07:19:37;1.53;;;1.20;;
8656;SDS011;4366;50.764;7.184;2023-05-16T07:24:39;1.20;;;1.20;;
8656;SDS011;4366;50.764;7.184;2023-05-16T07:29:42;1.70;;;1.10;;
8656;SDS011;4366;50.764;7.184;2023-05-16T07:34:44;1.60;;;1.07;;
8656;SDS011;4366;50.764;7.184;2023-05-16T07:39:46;1.00;;;1.00;;
8656;SDS011;4366;50.764;7.184;2023-05-16T07:44:49;1.63;;;1.20;;
8656;SDS011;4366;50.764;7.184;2023-05-16T07:49:51;3.37;;;2.00;;
8656;SDS011;4366;50.764;7.184;2023-05-16T07:54:53;1.03;;;0.90;;
8656;SDS011;4366;50.764;7.184;2023-05-16T07:59:57;1.83;;;1.17;;
8656;SDS011;4366;50.764;7.184;2023-05-16T08:04:58;1.00;;;0.90;;
8656;SDS011;4366;50.764;7.184;2023-05-16T08:10:00;0.93;;;0.80;;
8656;SDS011;4366;50.764;7.184;2023-05-16T08:15:02;2.90;;;0.90;;
8656;SDS011;4366;50.764;7.184;2023-05-16T08:20:04;0.90;;;0.90;;
8656;SDS011;4366;50.764;7.184;2023-05-16T08:25:06;1.90;;;0.87;;
8656;SDS011;4366;50.764;7.184;2023-05-16T08:30:09;1.47;;;0.70;;
8656;SDS011;4366;50.764;7.184;2023-05-16T08:35:12;0.70;;;0.70;;
8656;SDS011;4366;50.764;7.184;2023-05-16T08:40:14;1.30;;;0.80;;
8656;SDS011;4366;50.764;7.184;2023-05-16T08:45:16;1.07;;;0.70;;
8656;SDS011;4366;50.764;7.184;2023-05-16T08:50:17;1.17;;;0.63;;
8656;SDS011;4366;50.764;7.184;2023-05-16T08:55:20;0.67;;;0.67;;
8656;SDS011;4366;50.764;7.184;2023-05-16T09:00:23;2.50;;;0.73;;
8656;SDS011;4366;50.764;7.184;2023-05-16T09:05:26;0.70;;;0.70;;
8656;SDS011;4366;50.764;7.184;2023-05-16T09:10:30;0.80;;;0.77;;
8656;SDS011;4366;50.764;7.184;2023-05-16T09:15:32;0.70;;;0.70;;
8656;SDS011;4366;50.764;7.184;2023-05-16T09:20:34;3.07;;;1.10;;
8656;SDS011;4366;50.764;7.184;2023-05-16T09:25:38;0.60;;;0.60;;
8656;SDS011;4366;50.764;7.184;2023-05-16T09:30:55;0.60;;;0.60;;
8656;SDS011;4366;50.764;7.184;2023-05-16T09:35:59;2.60;;;1.07;;
8656;SDS011;4366;50.764;7.184;2023-05-16T09:41:01;1.57;;;0.80;;
8656;SDS011;4366;50.764;7.184;2023-05-16T09:46:04;2.00;;;0.90;;
8656;SDS011;4366;50.764;7.184;2023-05-16T09:51:06;0.50;;;0.50;;
8656;SDS011;4366;50.764;7.184;2023-05-16T09:56:12;1.20;;;0.57;;
8656;SDS011;4366;50.764;7.184;2023-05-16T10:01:14;1.97;;;0.60;;
8656;SDS011;4366;50.764;7.184;2023-05-16T10:06:16;2.77;;;1.00;;
8656;SDS011;4366;50.764;7.184;2023-05-16T10:11:18;3.17;;;0.80;;
8656;SDS011;4366;50.764;7.184;2023-05-16T10:16:21;0.47;;;0.47;;
8656;SDS011;4366;50.764;7.184;2023-05-16T10:21:24;0.60;;;0.60;;
8656;SDS011;4366;50.764;7.184;2023-05-16T10:26:29;1.23;;;0.70;;
8656;SDS011;4366;50.764;7.184;2023-05-16T10:31:33;1.40;;;0.83;;
8656;SDS011;4366;50.764;7.184;2023-05-16T10:36:35;0.80;;;0.80;;
8656;SDS011;4366;50.764;7.184;2023-05-16T10:41:37;1.50;;;0.87;;
8656;SDS011;4366;50.764;7.184;2023-05-16T10:46:39;0.87;;;0.87;;
8656;SDS011;4366;50.764;7.184;2023-05-16T10:51:41;0.70;;;0.70;;
8656;SDS011;4366;50.764;7.184;2023-05-16T10:56:42;0.70;;;0.70;;
8656;SDS011;4366;50.764;7.184;2023-05-16T11:01:44;0.83;;;0.83;;
8656;SDS011;4366;50.764;7.184;2023-05-16T11:06:59;0.67;;;0.67;;
8656;SDS011;4366;50.764;7.184;2023-05-16T11:12:01;0.90;;;0.90;;
8656;SDS011;4366;50.764;7.184;2023-05-16T11:17:13;0.50;;;0.50;;
8656;SDS011;4366;50.764;7.184;2023-05-16T11:32:27;0.50;;;0.50;;
8656;SDS011;4366;50.764;7.184;2023-05-16T11:37:29;0.50;;;0.50;;
8656;SDS011;4366;50.764;7.184;2023-05-16T11:42:34;0.50;;;0.50;;
8656;SDS011;4366;50.764;7.184;2023-05-16T11:47:41;0.93;;;0.70;;
8656;SDS011;4366;50.764;7.184;2023-05-16T11:52:46;0.77;;;0.73;;
8656;SDS011;4366;50.764;7.184;2023-05-16T11:57:52;1.60;;;0.70;;
8656;SDS011;4366;50.764;7.184;2023-05-16T12:03:00;0.50;;;0.50;;
8656;SDS011;4366;50.764;7.184;2023-05-16T12:08:04;0.63;;;0.60;;
8656;SDS011;4366;50.764;7.184;2023-05-16T12:13:06;1.03;;;0.80;;
8656;SDS011;4366;50.764;7.184;2023-05-16T12:18:08;0.87;;;0.50;;
8656;SDS011;4366;50.764;7.184;2023-05-16T12:23:11;0.57;;;0.57;;
8656;SDS011;4366;50.764;7.184;2023-05-16T12:28:14;1.80;;;0.90;;
8656;SDS011;4366;50.764;7.184;2023-05-16T12:33:17;1.33;;;1.23;;
8656;SDS011;4366;50.764;7.184;2023-05-16T12:38:19;1.93;;;0.97;;
8656;SDS011;4366;50.764;7.184;2023-05-16T12:43:21;1.27;;;1.00;;
8656;SDS011;4366;50.764;7.184;2023-05-16T12:48:23;0.83;;;0.83;;
8656;SDS011;4366;50.764;7.184;2023-05-16T12:53:39;0.90;;;0.90;;
8656;SDS011;4366;50.764;7.184;2023-05-16T12:58:43;1.73;;;1.63;;
8656;SDS011;4366;50.764;7.184;2023-05-16T13:03:45;1.10;;;1.00;;
8656;SDS011;4366;50.764;7.184;2023-05-16T13:08:47;0.77;;;0.77;;
8656;SDS011;4366;50.764;7.184;2023-05-16T13:13:48;1.20;;;1.10;;
8656;SDS011;4366;50.764;7.184;2023-05-16T13:18:50;3.40;;;1.23;;
8656;SDS011;4366;50.764;7.184;2023-05-16T13:23:52;1.30;;;1.00;;
8656;SDS011;4366;50.764;7.184;2023-05-16T13:28:54;0.60;;;0.60;;
8656;SDS011;4366;50.764;7.184;2023-05-16T13:33:56;0.73;;;0.73;;
8656;SDS011;4366;50.764;7.184;2023-05-16T13:38:59;3.23;;;0.87;;
8656;SDS011;4366;50.764;7.184;2023-05-16T13:44:00;0.67;;;0.67;;
8656;SDS011;4366;50.764;7.184;2023-05-16T13:49:04;1.30;;;1.20;;
8656;SDS011;4366;50.764;7.184;2023-05-16T13:54:07;1.20;;;1.10;;
8656;SDS011;4366;50.764;7.184;2023-05-16T13:59:09;0.90;;;0.90;;
8656;SDS011;4366;50.764;7.184;2023-05-16T14:04:18;0.77;;;0.73;;
8656;SDS011;4366;50.764;7.184;2023-05-16T14:09:20;1.03;;;0.77;;
8656;SDS011;4366;50.764;7.184;2023-05-16T14:14:22;0.60;;;0.60;;
8656;SDS011;4366;50.764;7.184;2023-05-16T14:19:24;0.67;;;0.50;;
8656;SDS011;4366;50.764;7.184;2023-05-16T14:24:26;0.70;;;0.57;;
8656;SDS011;4366;50.764;7.184;2023-05-16T14:29:28;1.00;;;0.90;;
8656;SDS011;4366;50.764;7.184;2023-05-16T14:34:30;0.87;;;0.87;;
8656;SDS011;4366;50.764;7.184;2023-05-16T14:39:32;1.17;;;0.60;;
8656;SDS011;4366;50.764;7.184;2023-05-16T14:44:34;1.37;;;0.63;;
8656;SDS011;4366;50.764;7.184;2023-05-16T14:49:35;0.67;;;0.57;;
8656;SDS011;4366;50.764;7.184;2023-05-16T14:54:37;0.50;;;0.50;;
8656;SDS011;4366;50.764;7.184;2023-05-16T14:59:39;0.60;;;0.60;;
8656;SDS011;4366;50.764;7.184;2023-05-16T15:04:41;1.23;;;1.00;;
8656;SDS011;4366;50.764;7.184;2023-05-16T15:09:43;0.70;;;0.70;;
8656;SDS011;4366;50.764;7.184;2023-05-16T15:14:44;2.70;;;1.17;;
8656;SDS011;4366;50.764;7.184;2023-05-16T15:19:46;0.50;;;0.50;;
8656;SDS011;4366;50.764;7.184;2023-05-16T15:24:49;0.50;;;0.50;;
8656;SDS011;4366;50.764;7.184;2023-05-16T15:29:51;1.13;;;1.03;;
8656;SDS011;4366;50.764;7.184;2023-05-16T15:34:53;0.40;;;0.40;;
8656;SDS011;4366;50.764;7.184;2023-05-16T15:39:55;0.70;;;0.70;;
8656;SDS011;4366;50.764;7.184;2023-05-16T15:44:57;1.23;;;1.10;;
8656;SDS011;4366;50.764;7.184;2023-05-16T15:49:59;0.77;;;0.53;;
8656;SDS011;4366;50.764;7.184;2023-05-16T15:55:03;0.83;;;0.80;;
8656;SDS011;4366;50.764;7.184;2023-05-16T16:00:07;0.97;;;0.60;;
8656;SDS011;4366;50.764;7.184;2023-05-16T16:05:11;1.50;;;0.70;;
8656;SDS011;4366;50.764;7.184;2023-05-16T16:10:13;0.70;;;0.70;;
8656;SDS011;4366;50.764;7.184;2023-05-16T16:15:15;0.87;;;0.70;;
8656;SDS011;4366;50.764;7.184;2023-05-16T16:20:17;0.47;;;0.43;;
8656;SDS011;4366;50.764;7.184;2023-05-16T16:25:22;1.03;;;0.80;;
8656;SDS011;4366;50.764;7.184;2023-05-16T16:30:27;0.70;;;0.57;;
8656;SDS011;4366;50.764;7.184;2023-05-16T16:35:29;0.80;;;0.80;;
8656;SDS011;4366;50.764;7.184;2023-05-16T16:40:31;1.17;;;1.10;;
8656;SDS011;4366;50.764;7.184;2023-05-16T16:45:33;1.27;;;1.17;;
8656;SDS011;4366;50.764;7.184;2023-05-16T16:50:35;1.00;;;1.00;;
8656;SDS011;4366;50.764;7.184;2023-05-16T16:55:37;1.13;;;1.00;;
8656;SDS011;4366;50.764;7.184;2023-05-16T17:00:41;2.00;;;1.10;;
8656;SDS011;4366;50.764;7.184;2023-05-16T17:05:43;0.70;;;0.70;;
8656;SDS011;4366;50.764;7.184;2023-05-16T17:10:45;2.20;;;0.83;;
8656;SDS011;4366;50.764;7.184;2023-05-16T17:15:47;1.77;;;1.07;;
8656;SDS011;4366;50.764;7.184;2023-05-16T17:20:49;1.93;;;1.27;;
8656;SDS011;4366;50.764;7.184;2023-05-16T17:25:50;0.70;;;0.70;;
8656;SDS011;4366;50.764;7.184;2023-05-16T17:30:53;2.97;;;0.90;;
8656;SDS011;4366;50.764;7.184;2023-05-16T17:35:54;1.70;;;0.80;;
8656;SDS011;4366;50.764;7.184;2023-05-16T17:40:56;0.77;;;0.77;;
8656;SDS011;4366;50.764;7.184;2023-05-16T17:45:58;1.00;;;0.97;;
8656;SDS011;4366;50.764;7.184;2023-05-16T17:51:00;2.00;;;1.10;;
8656;SDS011;4366;50.764;7.184;2023-05-16T17:56:02;2.00;;;1.20;;
8656;SDS011;4366;50.764;7.184;2023-05-16T18:01:08;1.20;;;1.10;;
8656;SDS011;4366;50.764;7.184;2023-05-16T18:06:10;2.83;;;1.37;;
8656;SDS011;4366;50.764;7.184;2023-05-16T18:11:12;1.00;;;1.00;;
8656;SDS011;4366;50.764;7.184;2023-05-16T18:16:15;1.90;;;0.90;;
8656;SDS011;4366;50.764;7.184;2023-05-16T18:21:17;1.70;;;1.10;;
8656;SDS011;4366;50.764;7.184;2023-05-16T18:26:18;1.33;;;1.23;;
8656;SDS011;4366;50.764;7.184;2023-05-16T18:31:20;1.00;;;1.00;;
8656;SDS011;4366;50.764;7.184;2023-05-16T18:36:22;1.00;;;0.83;;
8656;SDS011;4366;50.764;7.184;2023-05-16T18:41:25;0.97;;;0.90;;
8656;SDS011;4366;50.764;7.184;2023-05-16T18:46:27;0.90;;;0.90;;
8656;SDS011;4366;50.764;7.184;2023-05-16T18:51:29;1.57;;;0.90;;
8656;SDS011;4366;50.764;7.184;2023-05-16T18:56:31;1.03;;;1.03;;
8656;SDS011;4366;50.764;7.184;2023-05-16T19:01:33;1.60;;;1.43;;
8656;SDS011;4366;50.764;7.184;2023-05-16T19:06:35;1.73;;;1.63;;
8656;SDS011;4366;50.764;7.184;2023-05-16T19:11:38;1.00;;;1.00;;
8656;SDS011;4366;50.764;7.184;2023-05-16T19:16:39;1.20;;;1.10;;
8656;SDS011;4366;50.764;7.184;2023-05-16T19:21:41;1.37;;;1.27;;
8656;SDS011;4366;50.764;7.184;2023-05-16T19:26:43;1.33;;;0.97;;
8656;SDS011;4366;50.764;7.184;2023-05-16T19:31:45;1.20;;;1.10;;
8656;SDS011;4366;50.764;7.184;2023-05-16T19:36:46;2.20;;;1.20;;
8656;SDS011;4366;50.764;7.184;2023-05-16T19:41:48;1.50;;;1.40;;
8656;SDS011;4366;50.764;7.184;2023-05-16T19:46:52;2.63;;;1.07;;
8656;SDS011;4366;50.764;7.184;2023-05-16T19:51:54;1.63;;;1.10;;
8656;SDS011;4366;50.764;7.184;2023-05-16T19:56:56;2.47;;;1.33;;
8656;SDS011;4366;50.764;7.184;2023-05-16T20:01:59;2.93;;;1.80;;
8656;SDS011;4366;50.764;7.184;2023-05-16T20:07:00;1.10;;;1.07;;
8656;SDS011;4366;50.764;7.184;2023-05-16T20:12:02;1.10;;;1.07;;
8656;SDS011;4366;50.764;7.184;2023-05-16T20:17:04;2.63;;;1.33;;
8656;SDS011;4366;50.764;7.184;2023-05-16T20:22:06;1.00;;;1.00;;
8656;SDS011;4366;50.764;7.184;2023-05-16T20:27:08;1.17;;;1.17;;
8656;SDS011;4366;50.764;7.184;2023-05-16T20:32:10;2.03;;;1.90;;
8656;SDS011;4366;50.764;7.184;2023-05-16T20:37:12;1.77;;;1.27;;
8656;SDS011;4366;50.764;7.184;2023-05-16T20:42:14;1.60;;;1.43;;
8656;SDS011;4366;50.764;7.184;2023-05-16T20:47:15;1.37;;;1.23;;
8656;SDS011;4366;50.764;7.184;2023-05-16T20:52:17;2.47;;;1.10;;
8656;SDS011;4366;50.764;7.184;2023-05-16T20:57:22;1.10;;;0.97;;
8656;SDS011;4366;50.764;7.184;2023-05-16T21:02:23;1.50;;;1.40;;
8656;SDS011;4366;50.764;7.184;2023-05-16T21:07:26;1.20;;;1.10;;
8656;SDS011;4366;50.764;7.184;2023-05-16T21:12:27;1.43;;;1.17;;
8656;SDS011;4366;50.764;7.184;2023-05-16T21:17:29;1.30;;;1.20;;
8656;SDS011;4366;50.764;7.184;2023-05-16T21:22:31;0.93;;;0.80;;
8656;SDS011;4366;50.764;7.184;2023-05-16T21:27:32;1.87;;;1.20;;
8656;SDS011;4366;50.764;7.184;2023-05-16T21:32:34;1.03;;;1.03;;
8656;SDS011;4366;50.764;7.184;2023-05-16T21:37:36;1.43;;;1.33;;
8656;SDS011;4366;50.764;7.184;2023-05-16T21:42:37;1.13;;;1.10;;
8656;SDS011;4366;50.764;7.184;2023-05-16T21:47:39;1.00;;;1.00;;
8656;SDS011;4366;50.764;7.184;2023-05-16T21:52:42;1.13;;;0.87;;
8656;SDS011;4366;50.764;7.184;2023-05-16T21:57:43;1.00;;;1.00;;
8656;SDS011;4366;50.764;7.184;2023-05-16T22:02:45;1.03;;;1.03;;
8656;SDS011;4366;50.764;7.184;2023-05-16T22:07:48;1.10;;;1.00;;
8656;SDS011;4366;50.764;7.184;2023-05-16T22:12:51;0.93;;;0.93;;
8656;SDS011;4366;50.764;7.184;2023-05-16T22:17:52;1.43;;;1.20;;
8656;SDS011;4366;50.764;7.184;2023-05-16T22:22:58;1.30;;;1.20;;
8656;SDS011;4366;50.764;7.184;2023-05-16T22:27:59;1.83;;;1.30;;
8656;SDS011;4366;50.764;7.184;2023-05-16T22:33:01;1.50;;;1.40;;
8656;SDS011;4366;50.764;7.184;2023-05-16T22:38:04;1.60;;;1.50;;
8656;SDS011;4366;50.764;7.184;2023-05-16T22:43:05;1.90;;;1.10;;
8656;SDS011;4366;50.764;7.184;2023-05-16T22:48:07;2.60;;;1.27;;
8656;SDS011;4366;50.764;7.184;2023-05-16T22:53:09;0.90;;;0.90;;
8656;SDS011;4366;50.764;7.184;2023-05-16T22:58:11;1.77;;;1.10;;
8656;SDS011;4366;50.764;7.184;2023-05-16T23:03:12;1.47;;;1.27;;
8656;SDS011;4366;50.764;7.184;2023-05-16T23:08:14;1.47;;;1.07;;
8656;SDS011;4366;50.764;7.184;2023-05-16T23:13:16;2.30;;;1.50;;
8656;SDS011;4366;50.764;7.184;2023-05-16T23:18:18;1.20;;;1.20;;
8656;SDS011;4366;50.764;7.184;2023-05-16T23:23:20;1.57;;;1.47;;
8656;SDS011;4366;50.764;7.184;2023-05-16T23:28:24;3.03;;;1.30;;
8656;SDS011;4366;50.764;7.184;2023-05-16T23:33:26;1.87;;;1.77;;
8656;SDS011;4366;50.764;7.184;2023-05-16T23:38:28;1.90;;;1.30;;
8656;SDS011;4366;50.764;7.184;2023-05-16T23:43:30;2.33;;;1.60;;
8656;SDS011;4366;50.764;7.184;2023-05-16T23:48:31;3.33;;;1.33;;
8656;SDS011;4366;50.764;7.184;2023-05-16T23:53:33;1.30;;;1.20;;
8656;SDS011;4366;50.764;7.184;2023-05-16T23:58:35;3.10;;;1.30;;
